createdAt,value
2023-05-02T00:00:12.413Z,1008.09
2023-05-02T00:01:12.457Z,1008.05
2023-05-02T00:02:12.393Z,1008.07
2023-05-02T00:03:12.439Z,1008.05
2023-05-02T00:04:12.471Z,1008.05
2023-05-02T00:05:12.340Z,1008.03
2023-05-02T00:06:12.385Z,1008.06
2023-05-02T00:07:12.310Z,1008.10
2023-05-02T00:08:12.311Z,1008.11
2023-05-02T00:09:12.289Z,1008.12
2023-05-02T00:10:12.277Z,1008.17
2023-05-02T00:11:12.385Z,1008.21
2023-05-02T00:12:12.256Z,1008.18
2023-05-02T00:13:12.258Z,1008.17
2023-05-02T00:14:12.230Z,1008.18
2023-05-02T00:15:12.228Z,1008.12
2023-05-02T00:16:12.207Z,1008.10
2023-05-02T00:17:12.342Z,1008.16
2023-05-02T00:18:12.267Z,1008.15
2023-05-02T00:19:12.525Z,1008.15
2023-05-02T00:20:12.191Z,1008.17
2023-05-02T00:21:12.172Z,1008.19
2023-05-02T00:22:12.250Z,1008.19
2023-05-02T00:23:12.145Z,1008.23
2023-05-02T00:24:12.149Z,1008.21
2023-05-02T00:25:12.132Z,1008.27
2023-05-02T00:26:12.145Z,1008.26
2023-05-02T00:27:12.135Z,1008.27
2023-05-02T00:28:12.078Z,1008.23
2023-05-02T00:29:12.140Z,1008.25
2023-05-02T00:30:12.061Z,1008.24
2023-05-02T00:31:12.132Z,1008.25
2023-05-02T00:32:12.074Z,1008.21
2023-05-02T00:33:12.135Z,1008.25
2023-05-02T00:34:12.044Z,1008.24
2023-05-02T00:35:12.085Z,1008.27
2023-05-02T00:36:12.031Z,1008.29
2023-05-02T00:37:11.994Z,1008.30
2023-05-02T00:38:11.987Z,1008.29
2023-05-02T00:39:11.989Z,1008.32
2023-05-02T00:40:11.981Z,1008.30
2023-05-02T00:41:11.950Z,1008.31
2023-05-02T00:42:11.989Z,1008.29
2023-05-02T00:43:11.950Z,1008.31
2023-05-02T00:44:11.921Z,1008.32
2023-05-02T00:45:11.949Z,1008.34
2023-05-02T00:46:11.908Z,1008.32
2023-05-02T00:47:11.935Z,1008.30
2023-05-02T00:48:12.034Z,1008.35
2023-05-02T00:49:11.883Z,1008.36
2023-05-02T00:50:11.868Z,1008.36
2023-05-02T00:51:11.853Z,1008.36
2023-05-02T00:52:11.851Z,1008.38
2023-05-02T00:53:11.868Z,1008.37
2023-05-02T00:54:11.813Z,1008.40
2023-05-02T00:55:11.811Z,1008.41
2023-05-02T00:56:11.797Z,1008.37
2023-05-02T00:57:11.826Z,1008.35
2023-05-02T00:58:11.802Z,1008.33
2023-05-02T00:59:11.796Z,1008.37
2023-05-02T01:00:11.758Z,1008.36
2023-05-02T01:01:11.828Z,1008.36
2023-05-02T01:02:11.920Z,1008.34
2023-05-02T01:03:11.909Z,1008.33
2023-05-02T01:04:11.845Z,1008.39
2023-05-02T01:05:11.711Z,1008.36
2023-05-02T01:06:11.734Z,1008.34
2023-05-02T01:07:11.671Z,1008.32
2023-05-02T01:08:11.688Z,1008.30
2023-05-02T01:09:11.682Z,1008.34
2023-05-02T01:10:11.680Z,1008.36
2023-05-02T01:11:11.643Z,1008.32
2023-05-02T01:12:11.610Z,1008.35
2023-05-02T01:13:11.830Z,1008.39
2023-05-02T01:14:11.609Z,1008.37
2023-05-02T01:15:11.601Z,1008.42
2023-05-02T01:16:11.657Z,1008.41
2023-05-02T01:17:11.666Z,1008.39
2023-05-02T01:18:11.692Z,1008.39
2023-05-02T01:19:11.564Z,1008.43
2023-05-02T01:20:11.533Z,1008.39
2023-05-02T01:21:11.530Z,1008.39
2023-05-02T01:22:11.498Z,1008.36
2023-05-02T01:23:11.502Z,1008.40
2023-05-02T01:24:11.483Z,1008.42
2023-05-02T01:25:11.497Z,1008.43
2023-05-02T01:26:11.472Z,1008.41
2023-05-02T01:27:11.511Z,1008.40
2023-05-02T01:28:11.437Z,1008.42
2023-05-02T01:29:11.452Z,1008.42
2023-05-02T01:30:11.410Z,1008.38
2023-05-02T01:31:11.418Z,1008.43
2023-05-02T01:32:11.422Z,1008.42
2023-05-02T01:33:11.456Z,1008.43
2023-05-02T01:34:11.387Z,1008.45
2023-05-02T01:35:11.380Z,1008.46
2023-05-02T01:36:11.351Z,1008.44
2023-05-02T01:37:11.357Z,1008.46
2023-05-02T01:38:11.372Z,1008.45
2023-05-02T01:39:11.323Z,1008.48
2023-05-02T01:40:11.308Z,1008.49
2023-05-02T01:41:11.306Z,1008.51
2023-05-02T01:42:11.325Z,1008.52
2023-05-02T01:43:11.294Z,1008.53
2023-05-02T01:44:11.303Z,1008.52
2023-05-02T01:45:11.272Z,1008.54
2023-05-02T01:46:11.334Z,1008.54
2023-05-02T01:47:11.350Z,1008.54
2023-05-02T01:48:11.312Z,1008.54
2023-05-02T01:49:11.244Z,1008.57
2023-05-02T01:50:11.211Z,1008.59
2023-05-02T01:51:11.227Z,1008.58
2023-05-02T01:52:11.215Z,1008.58
2023-05-02T01:53:11.201Z,1008.59
2023-05-02T01:54:11.161Z,1008.59
2023-05-02T01:55:11.171Z,1008.62
2023-05-02T01:56:11.139Z,1008.63
2023-05-02T01:57:11.149Z,1008.66
2023-05-02T01:58:11.125Z,1008.68
2023-05-02T01:59:11.123Z,1008.66
2023-05-02T02:00:11.107Z,1008.70
2023-05-02T02:01:11.190Z,1008.67
2023-05-02T02:02:11.101Z,1008.72
2023-05-02T02:03:11.106Z,1008.73
2023-05-02T02:04:11.117Z,1008.74
2023-05-02T02:05:11.056Z,1008.77
2023-05-02T02:06:11.072Z,1008.80
2023-05-02T02:07:11.046Z,1008.80
2023-05-02T02:08:11.037Z,1008.82
2023-05-02T02:09:11.020Z,1008.82
2023-05-02T02:10:11.026Z,1008.87
2023-05-02T02:11:10.998Z,1008.86
2023-05-02T02:12:10.985Z,1008.86
2023-05-02T02:13:10.966Z,1008.87
2023-05-02T02:14:10.955Z,1008.89
2023-05-02T02:15:11.153Z,1008.89
2023-05-02T02:16:10.966Z,1008.87
2023-05-02T02:17:10.974Z,1008.98
2023-05-02T02:18:10.975Z,1008.90
2023-05-02T02:19:10.944Z,1008.90
2023-05-02T02:20:10.885Z,1008.91
2023-05-02T02:21:10.886Z,1008.91
2023-05-02T02:22:10.860Z,1008.89
2023-05-02T02:23:10.875Z,1009.00
2023-05-02T02:24:10.872Z,1008.94
2023-05-02T02:25:10.861Z,1008.95
2023-05-02T02:26:10.811Z,1008.92
2023-05-02T02:27:10.830Z,1008.96
2023-05-02T02:28:10.812Z,1009.02
2023-05-02T02:29:10.797Z,1009.00
2023-05-02T02:30:10.775Z,1008.99
2023-05-02T02:31:10.802Z,1009.04
2023-05-02T02:32:10.762Z,1009.07
2023-05-02T02:33:10.896Z,1009.02
2023-05-02T02:34:10.749Z,1009.08
2023-05-02T02:35:10.750Z,1009.07
2023-05-02T02:36:10.712Z,1009.12
2023-05-02T02:37:10.705Z,1009.10
2023-05-02T02:38:10.688Z,1009.07
2023-05-02T02:39:10.690Z,1009.02
2023-05-02T02:40:10.676Z,1009.09
2023-05-02T02:41:10.675Z,1009.13
2023-05-02T02:42:10.655Z,1009.11
2023-05-02T02:43:10.673Z,1009.08
2023-05-02T02:44:12.940Z,1009.17
2023-05-02T02:45:10.624Z,1009.18
2023-05-02T02:46:10.699Z,1009.15
2023-05-02T02:47:10.618Z,1009.16
2023-05-02T02:48:10.635Z,1009.14
2023-05-02T02:49:10.588Z,1009.17
2023-05-02T02:50:10.578Z,1009.17
2023-05-02T02:51:10.585Z,1009.18
2023-05-02T02:52:10.570Z,1009.15
2023-05-02T02:53:10.537Z,1009.25
2023-05-02T02:54:22.851Z,1009.26
2023-05-02T02:55:11.650Z,1009.26
2023-05-02T02:56:10.641Z,1009.19
2023-05-02T02:57:10.509Z,1009.24
2023-05-02T02:58:10.525Z,1009.28
2023-05-02T02:59:10.491Z,1009.29
2023-05-02T03:00:10.504Z,1009.32
2023-05-02T03:01:10.490Z,1009.29
2023-05-02T03:02:10.607Z,1009.36
2023-05-02T03:03:10.581Z,1009.35
2023-05-02T03:04:10.448Z,1009.33
2023-05-02T03:05:10.431Z,1009.35
2023-05-02T03:06:10.401Z,1009.38
2023-05-02T03:07:10.402Z,1009.38
2023-05-02T03:08:10.370Z,1009.32
2023-05-02T03:09:10.354Z,1009.42
2023-05-02T03:10:10.353Z,1009.38
2023-05-02T03:11:10.363Z,1009.38
2023-05-02T03:12:10.326Z,1009.36
2023-05-02T03:13:10.341Z,1009.35
2023-05-02T03:14:10.375Z,1009.40
2023-05-02T03:15:10.315Z,1009.40
2023-05-02T03:16:10.328Z,1009.46
2023-05-02T03:17:10.434Z,1009.41
2023-05-02T03:18:10.605Z,1009.43
2023-05-02T03:19:10.254Z,1009.40
2023-05-02T03:20:10.241Z,1009.42
2023-05-02T03:21:10.233Z,1009.43
2023-05-02T03:22:10.219Z,1009.49
2023-05-02T03:23:10.232Z,1009.43
2023-05-02T03:24:10.211Z,1009.44
2023-05-02T03:25:10.581Z,1009.45
2023-05-02T03:26:10.175Z,1009.45
2023-05-02T03:27:10.236Z,1009.49
2023-05-02T03:28:10.170Z,1009.47
2023-05-02T03:29:10.135Z,1009.50
2023-05-02T03:30:10.136Z,1009.50
2023-05-02T03:31:10.173Z,1009.46
2023-05-02T03:32:10.312Z,1009.46
2023-05-02T03:33:10.286Z,1009.48
2023-05-02T03:34:10.106Z,1009.52
2023-05-02T03:35:10.095Z,1009.55
2023-05-02T03:36:10.071Z,1009.56
2023-05-02T03:37:10.062Z,1009.55
2023-05-02T03:38:10.066Z,1009.55
2023-05-02T03:39:10.073Z,1009.58
2023-05-02T03:40:10.064Z,1009.62
2023-05-02T03:41:10.031Z,1009.60
2023-05-02T03:42:10.046Z,1009.61
2023-05-02T03:43:09.999Z,1009.61
2023-05-02T03:44:10.065Z,1009.64
2023-05-02T03:45:09.975Z,1009.62
2023-05-02T03:46:09.980Z,1009.64
2023-05-02T03:47:09.978Z,1009.61
2023-05-02T03:48:10.163Z,1009.58
2023-05-02T03:49:09.941Z,1009.62
2023-05-02T03:50:09.960Z,1009.63
2023-05-02T03:51:10.617Z,1009.62
2023-05-02T03:52:09.919Z,1009.68
2023-05-02T03:53:09.879Z,1009.66
2023-05-02T03:54:09.892Z,1009.65
2023-05-02T03:55:09.853Z,1009.67
2023-05-02T03:56:09.856Z,1009.69
2023-05-02T03:57:09.824Z,1009.70
2023-05-02T03:58:09.831Z,1009.73
2023-05-02T03:59:09.812Z,1009.72
2023-05-02T04:00:09.802Z,1009.75
2023-05-02T04:01:09.809Z,1009.75
2023-05-02T04:02:09.886Z,1009.74
2023-05-02T04:03:09.780Z,1009.81
2023-05-02T04:04:09.803Z,1009.81
2023-05-02T04:05:09.759Z,1009.84
2023-05-02T04:06:09.835Z,1009.85
2023-05-02T04:07:09.726Z,1009.89
2023-05-02T04:08:09.721Z,1009.93
2023-05-02T04:09:09.735Z,1009.92
2023-05-02T04:10:09.709Z,1009.99
2023-05-02T04:11:09.691Z,1009.98
2023-05-02T04:12:09.717Z,1009.95
2023-05-02T04:13:09.665Z,1009.98
2023-05-02T04:14:09.694Z,1010.02
2023-05-02T04:15:09.641Z,1010.06
2023-05-02T04:16:09.675Z,1010.02
2023-05-02T04:17:09.710Z,1010.08
2023-05-02T04:18:09.724Z,1010.06
2023-05-02T04:19:09.715Z,1010.10
2023-05-02T04:20:09.624Z,1010.09
2023-05-02T04:21:09.672Z,1010.08
2023-05-02T04:22:09.582Z,1010.10
2023-05-02T04:23:09.548Z,1010.10
2023-05-02T04:24:09.542Z,1010.13
2023-05-02T04:25:09.561Z,1010.11
2023-05-02T04:26:09.569Z,1010.11
2023-05-02T04:27:09.513Z,1010.15
2023-05-02T04:28:09.501Z,1010.19
2023-05-02T04:29:09.511Z,1010.12
2023-05-02T04:30:09.493Z,1010.21
2023-05-02T04:31:09.483Z,1010.17
2023-05-02T04:32:09.466Z,1010.20
2023-05-02T04:33:09.473Z,1010.22
2023-05-02T04:34:09.490Z,1010.24
2023-05-02T04:35:09.441Z,1010.24
2023-05-02T04:36:09.424Z,1010.28
2023-05-02T04:37:09.437Z,1010.27
2023-05-02T04:38:09.403Z,1010.32
2023-05-02T04:39:09.418Z,1010.29
2023-05-02T04:40:09.376Z,1010.31
2023-05-02T04:41:09.709Z,1010.34
2023-05-02T04:42:09.378Z,1010.38
2023-05-02T04:43:09.326Z,1010.37
2023-05-02T04:44:09.354Z,1010.42
2023-05-02T04:45:09.326Z,1010.42
2023-05-02T04:46:09.407Z,1010.40
2023-05-02T04:47:09.398Z,1010.42
2023-05-02T04:48:09.356Z,1010.40
2023-05-02T04:49:09.277Z,1010.45
2023-05-02T04:50:09.342Z,1010.50
2023-05-02T04:51:09.254Z,1010.47
2023-05-02T04:52:09.299Z,1010.54
2023-05-02T04:53:09.240Z,1010.49
2023-05-02T04:54:09.241Z,1010.55
2023-05-02T04:55:09.244Z,1010.55
2023-05-02T04:56:09.219Z,1010.57
2023-05-02T04:57:09.182Z,1010.59
2023-05-02T04:58:09.208Z,1010.65
2023-05-02T04:59:09.184Z,1010.66
2023-05-02T05:00:09.179Z,1010.66
2023-05-02T05:01:09.221Z,1010.76
2023-05-02T05:02:09.220Z,1010.73
2023-05-02T05:03:09.218Z,1010.67
2023-05-02T05:04:09.332Z,1010.70
2023-05-02T05:05:09.167Z,1010.73
2023-05-02T05:06:09.116Z,1010.68
2023-05-02T05:07:09.099Z,1010.77
2023-05-02T05:08:09.101Z,1010.75
2023-05-02T05:09:09.098Z,1010.79
2023-05-02T05:10:09.096Z,1010.81
2023-05-02T05:11:09.082Z,1010.77
2023-05-02T05:12:09.044Z,1010.77
2023-05-02T05:13:09.050Z,1010.85
2023-05-02T05:14:09.020Z,1010.85
2023-05-02T05:15:09.023Z,1010.88
2023-05-02T05:16:09.008Z,1010.86
2023-05-02T05:17:08.984Z,1010.93
2023-05-02T05:18:09.072Z,1010.93
2023-05-02T05:19:09.003Z,1011.02
2023-05-02T05:20:09.568Z,1011.04
2023-05-02T05:21:09.070Z,1011.15
2023-05-02T05:22:08.938Z,1011.13
2023-05-02T05:23:08.904Z,1011.25
2023-05-02T05:24:08.915Z,1011.19
2023-05-02T05:25:08.899Z,1011.28
2023-05-02T05:26:08.956Z,1011.18
2023-05-02T05:27:08.868Z,1011.33
2023-05-02T05:28:08.871Z,1011.43
2023-05-02T05:29:08.844Z,1011.42
2023-05-02T05:30:08.866Z,1011.46
2023-05-02T05:31:08.885Z,1011.44
2023-05-02T05:33:06.998Z,1011.54
2023-05-02T05:34:04.155Z,1011.58
2023-05-02T05:35:04.111Z,1011.63
2023-05-02T05:36:04.095Z,1011.64
2023-05-02T05:37:04.100Z,1011.60
2023-05-02T05:38:04.068Z,1011.66
2023-05-02T05:39:04.057Z,1011.65
2023-05-02T05:40:04.249Z,1011.67
2023-05-02T05:41:04.055Z,1011.74
2023-05-02T05:42:04.013Z,1011.70
2023-05-02T05:43:04.022Z,1011.79
2023-05-02T05:44:04.007Z,1011.84
2023-05-02T05:45:04.010Z,1011.87
2023-05-02T05:46:04.015Z,1011.85
2023-05-02T05:47:04.028Z,1011.93
2023-05-02T05:48:04.030Z,1011.93
2023-05-02T05:49:03.973Z,1011.97
2023-05-02T05:50:04.069Z,1012.00
2023-05-02T05:51:03.994Z,1012.00
2023-05-02T05:52:04.006Z,1012.05
2023-05-02T05:53:03.984Z,1012.04
2023-05-02T05:54:04.872Z,1012.04
2023-05-02T05:55:03.935Z,1012.08
2023-05-02T05:56:03.874Z,1012.10
2023-05-02T05:57:03.894Z,1012.13
2023-05-02T05:58:03.862Z,1012.14
2023-05-02T05:59:03.893Z,1012.15
2023-05-02T06:00:04.244Z,1012.18
2023-05-02T06:01:03.819Z,1012.22
2023-05-02T06:02:03.863Z,1012.24
2023-05-02T06:03:04.398Z,1012.23
2023-05-02T06:04:03.918Z,1012.32
2023-05-02T06:05:04.032Z,1012.32
2023-05-02T06:06:03.890Z,1012.32
2023-05-02T06:07:03.764Z,1012.32
2023-05-02T06:08:03.812Z,1012.43
2023-05-02T06:09:03.748Z,1012.41
2023-05-02T06:10:03.735Z,1012.46
2023-05-02T06:11:03.979Z,1012.47
2023-05-02T06:12:03.756Z,1012.34
2023-05-02T06:13:03.720Z,1012.51
2023-05-02T06:14:03.710Z,1012.47
2023-05-02T06:15:03.705Z,1012.42
2023-05-02T06:16:03.692Z,1012.47
2023-05-02T06:17:03.704Z,1012.43
2023-05-02T06:18:03.773Z,1012.56
2023-05-02T06:19:03.637Z,1012.61
2023-05-02T06:20:03.643Z,1012.57
2023-05-02T06:21:03.602Z,1012.65
2023-05-02T06:22:03.616Z,1012.60
2023-05-02T06:23:03.785Z,1012.67
2023-05-02T06:24:03.597Z,1012.69
2023-05-02T06:25:03.581Z,1012.69
2023-05-02T06:26:03.573Z,1012.68
2023-05-02T06:27:03.553Z,1012.70
2023-05-02T06:28:03.549Z,1012.76
2023-05-02T06:29:03.530Z,1012.71
2023-05-02T06:30:04.027Z,1012.73
2023-05-02T06:31:03.590Z,1012.73
2023-05-02T06:32:03.640Z,1012.82
2023-05-02T06:33:03.554Z,1012.78
2023-05-02T06:34:03.494Z,1012.80
2023-05-02T06:35:03.482Z,1012.81
2023-05-02T06:36:03.463Z,1012.72
2023-05-02T06:37:03.428Z,1012.77
2023-05-02T06:38:03.453Z,1012.81
2023-05-02T06:39:03.408Z,1012.82
2023-05-02T06:40:03.862Z,1012.83
2023-05-02T06:41:03.394Z,1012.82
2023-05-02T06:42:03.389Z,1012.82
2023-05-02T06:43:03.383Z,1012.85
2023-05-02T06:44:03.386Z,1012.90
2023-05-02T06:45:03.340Z,1012.93
2023-05-02T06:46:03.412Z,1012.96
2023-05-02T06:47:03.379Z,1012.97
2023-05-02T06:48:03.361Z,1012.92
2023-05-02T06:49:03.310Z,1012.92
2023-05-02T06:50:03.546Z,1012.97
2023-05-02T06:51:03.321Z,1013.02
2023-05-02T06:52:03.297Z,1013.02
2023-05-02T06:53:03.254Z,1013.03
2023-05-02T06:54:04.280Z,1013.11
2023-05-02T06:55:03.238Z,1013.12
2023-05-02T06:56:03.258Z,1013.11
2023-05-02T06:57:03.221Z,1013.13
2023-05-02T06:58:03.248Z,1013.10
2023-05-02T06:59:03.302Z,1013.22
2023-05-02T07:00:03.547Z,1013.22
2023-05-02T07:01:03.259Z,1013.19
2023-05-02T07:02:05.148Z,1013.26
2023-05-02T07:03:03.206Z,1013.26
2023-05-02T07:04:03.222Z,1013.30
2023-05-02T07:05:03.126Z,1013.33
2023-05-02T07:06:03.192Z,1013.29
2023-05-02T07:07:03.127Z,1013.26
2023-05-02T07:08:03.126Z,1013.30
2023-05-02T07:09:03.119Z,1013.31
2023-05-02T07:10:03.300Z,1013.32
2023-05-02T07:11:03.087Z,1013.36
2023-05-02T07:12:05.270Z,1013.39
2023-05-02T07:13:03.051Z,1013.45
2023-05-02T07:14:03.068Z,1013.42
2023-05-02T07:15:04.006Z,1013.44
2023-05-02T07:16:03.153Z,1013.51
2023-05-02T07:17:03.080Z,1013.50
2023-05-02T07:18:03.048Z,1013.47
2023-05-02T07:19:02.984Z,1013.49
2023-05-02T07:20:03.399Z,1013.54
2023-05-02T07:21:02.980Z,1013.53
2023-05-02T07:22:02.994Z,1013.53
2023-05-02T07:23:02.977Z,1013.53
2023-05-02T07:24:02.963Z,1013.60
2023-05-02T07:25:03.931Z,1013.63
2023-05-02T07:26:05.581Z,1013.66
2023-05-02T07:27:02.906Z,1013.63
2023-05-02T07:28:02.907Z,1013.65
2023-05-02T07:29:02.885Z,1013.74
2023-05-02T07:30:03.072Z,1013.73
2023-05-02T07:31:02.872Z,1013.76
2023-05-02T07:32:02.918Z,1013.76
2023-05-02T07:33:03.879Z,1013.77
2023-05-02T07:34:02.839Z,1013.75
2023-05-02T07:35:02.842Z,1013.83
2023-05-02T07:36:02.885Z,1013.85
2023-05-02T07:37:02.797Z,1013.91
2023-05-02T07:38:02.808Z,1013.83
2023-05-02T07:39:02.774Z,1013.87
2023-05-02T07:40:03.154Z,1013.86
2023-05-02T07:41:02.785Z,1013.91
2023-05-02T07:42:02.763Z,1013.91
2023-05-02T07:43:02.742Z,1013.97
2023-05-02T07:44:02.741Z,1013.95
2023-05-02T07:45:02.720Z,1013.93
2023-05-02T07:46:02.757Z,1013.98
2023-05-02T07:47:02.704Z,1013.94
2023-05-02T07:48:02.721Z,1013.97
2023-05-02T07:49:02.662Z,1013.96
2023-05-02T07:50:02.940Z,1014.03
2023-05-02T07:51:02.772Z,1013.94
2023-05-02T07:52:02.636Z,1013.90
2023-05-02T07:53:02.650Z,1013.95
2023-05-02T07:54:02.640Z,1014.00
2023-05-02T07:55:02.605Z,1013.98
2023-05-02T07:56:02.645Z,1014.00
2023-05-02T07:57:02.617Z,1013.99
2023-05-02T07:58:02.574Z,1014.01
2023-05-02T07:59:03.697Z,1013.98
2023-05-02T08:00:03.057Z,1014.05
2023-05-02T08:01:02.537Z,1014.04
2023-05-02T08:02:02.550Z,1014.07
2023-05-02T08:03:02.774Z,1014.09
2023-05-02T08:04:02.722Z,1014.10
2023-05-02T08:05:02.560Z,1014.12
2023-05-02T08:06:02.572Z,1014.14
2023-05-02T08:07:02.464Z,1014.15
2023-05-02T08:08:02.494Z,1014.18
2023-05-02T08:09:02.458Z,1014.17
2023-05-02T08:10:02.866Z,1014.18
2023-05-02T08:11:02.451Z,1014.20
2023-05-02T08:12:02.432Z,1014.21
2023-05-02T08:13:02.409Z,1014.26
2023-05-02T08:14:02.430Z,1014.31
2023-05-02T08:15:02.396Z,1014.35
2023-05-02T08:16:02.435Z,1014.35
2023-05-02T08:17:02.439Z,1014.40
2023-05-02T08:18:02.553Z,1014.40
2023-05-02T08:19:02.344Z,1014.38
2023-05-02T08:20:02.688Z,1014.42
2023-05-02T08:21:02.313Z,1014.47
2023-05-02T08:22:02.335Z,1014.45
2023-05-02T08:23:02.309Z,1014.41
2023-05-02T08:24:02.308Z,1014.47
2023-05-02T08:25:02.275Z,1014.46
2023-05-02T08:26:02.290Z,1014.46
2023-05-02T08:27:02.381Z,1014.52
2023-05-02T08:28:02.274Z,1014.55
2023-05-02T08:29:02.251Z,1014.58
2023-05-02T08:30:02.508Z,1014.54
2023-05-02T08:31:02.220Z,1014.59
2023-05-02T08:32:02.415Z,1014.55
2023-05-02T08:33:02.292Z,1014.60
2023-05-02T08:34:02.218Z,1014.58
2023-05-02T08:35:02.168Z,1014.60
2023-05-02T08:36:02.188Z,1014.62
2023-05-02T08:37:02.157Z,1014.61
2023-05-02T08:38:02.313Z,1014.64
2023-05-02T08:39:02.149Z,1014.65
2023-05-02T08:40:02.494Z,1014.64
2023-05-02T08:41:02.124Z,1014.66
2023-05-02T08:42:02.121Z,1014.68
2023-05-02T08:43:02.100Z,1014.64
2023-05-02T08:44:02.102Z,1014.64
2023-05-02T08:45:02.082Z,1014.71
2023-05-02T08:46:02.085Z,1014.72
2023-05-02T08:47:02.101Z,1014.74
2023-05-02T08:48:02.075Z,1014.71
2023-05-02T08:49:02.023Z,1014.74
2023-05-02T08:50:02.593Z,1014.77
2023-05-02T08:51:01.998Z,1014.79
2023-05-02T08:52:02.019Z,1014.82
2023-05-02T08:53:01.976Z,1014.79
2023-05-02T08:54:01.998Z,1014.83
2023-05-02T08:55:02.479Z,1014.86
2023-05-02T08:56:01.945Z,1014.87
2023-05-02T08:57:02.914Z,1014.87
2023-05-02T08:58:01.963Z,1014.89
2023-05-02T08:59:01.904Z,1014.80
2023-05-02T09:00:01.929Z,1014.85
2023-05-02T09:01:01.906Z,1014.77
2023-05-02T09:02:01.906Z,1014.84
2023-05-02T09:03:01.917Z,1014.84
2023-05-02T09:04:01.884Z,1014.85
2023-05-02T09:05:02.259Z,1014.79
2023-05-02T09:06:01.944Z,1014.78
2023-05-02T09:07:01.832Z,1014.85
2023-05-02T09:08:01.834Z,1014.82
2023-05-02T09:09:01.817Z,1014.78
2023-05-02T09:10:01.805Z,1014.84
2023-05-02T09:11:01.839Z,1014.83
2023-05-02T09:12:01.876Z,1014.80
2023-05-02T09:13:01.788Z,1014.89
2023-05-02T09:14:01.839Z,1014.82
2023-05-02T09:15:01.811Z,1014.86
2023-05-02T09:16:01.761Z,1014.85
2023-05-02T09:17:01.756Z,1014.91
2023-05-02T09:18:01.756Z,1014.87
2023-05-02T09:19:01.745Z,1014.93
2023-05-02T09:20:01.695Z,1015.00
2023-05-02T09:21:01.664Z,1015.01
2023-05-02T09:22:01.676Z,1015.07
2023-05-02T09:23:01.661Z,1015.04
2023-05-02T09:24:01.697Z,1015.14
2023-05-02T09:25:01.914Z,1015.16
2023-05-02T09:26:01.650Z,1015.20
2023-05-02T09:27:01.646Z,1015.18
2023-05-02T09:28:01.842Z,1015.21
2023-05-02T09:29:01.580Z,1015.23
2023-05-02T09:30:01.580Z,1015.24
2023-05-02T09:31:01.610Z,1015.16
2023-05-02T09:32:01.585Z,1015.30
2023-05-02T09:33:01.574Z,1015.24
2023-05-02T09:34:01.548Z,1015.26
2023-05-02T09:35:01.760Z,1015.28
2023-05-02T09:36:01.521Z,1015.32
2023-05-02T09:37:01.543Z,1015.29
2023-05-02T09:38:01.565Z,1015.27
2023-05-02T09:39:01.479Z,1015.34
2023-05-02T09:40:01.487Z,1015.45
2023-05-02T09:41:01.447Z,1015.40
2023-05-02T09:42:01.456Z,1015.37
2023-05-02T09:43:01.479Z,1015.47
2023-05-02T09:44:01.451Z,1015.50
2023-05-02T09:45:01.634Z,1015.51
2023-05-02T09:46:01.496Z,1015.43
2023-05-02T09:47:01.395Z,1015.49
2023-05-02T09:48:01.414Z,1015.47
2023-05-02T09:49:01.377Z,1015.56
2023-05-02T09:50:01.378Z,1015.60
2023-05-02T09:51:01.360Z,1015.58
2023-05-02T09:52:01.322Z,1015.52
2023-05-02T09:53:01.342Z,1015.66
2023-05-02T09:54:01.331Z,1015.70
2023-05-02T09:55:01.513Z,1015.67
2023-05-02T09:56:01.353Z,1015.72
2023-05-02T09:57:01.302Z,1015.73
2023-05-02T09:58:01.290Z,1015.72
2023-05-02T09:59:01.293Z,1015.76
2023-05-02T10:00:01.271Z,1015.73
2023-05-02T10:01:01.245Z,1015.72
2023-05-02T10:02:01.291Z,1015.77
2023-05-02T10:03:01.277Z,1015.73
2023-05-02T10:04:01.270Z,1015.80
2023-05-02T10:05:01.452Z,1015.75
2023-05-02T10:06:01.262Z,1015.82
2023-05-02T10:07:01.205Z,1015.80
2023-05-02T10:08:01.182Z,1015.78
2023-05-02T10:09:01.141Z,1015.81
2023-05-02T10:10:01.166Z,1015.83
2023-05-02T10:11:01.146Z,1015.82
2023-05-02T10:12:01.122Z,1015.88
2023-05-02T10:13:01.123Z,1015.79
2023-05-02T10:14:01.184Z,1015.83
2023-05-02T10:15:01.463Z,1015.79
2023-05-02T10:16:01.151Z,1015.80
2023-05-02T10:17:01.129Z,1015.74
2023-05-02T10:18:01.169Z,1015.77
2023-05-02T10:19:01.067Z,1015.81
2023-05-02T10:20:01.050Z,1015.83
2023-05-02T10:21:01.048Z,1015.80
2023-05-02T10:22:01.024Z,1015.79
2023-05-02T10:23:01.037Z,1015.74
2023-05-02T10:24:01.010Z,1015.73
2023-05-02T10:25:01.332Z,1015.69
2023-05-02T10:26:00.963Z,1015.70
2023-05-02T10:27:00.984Z,1015.72
2023-05-02T10:28:00.956Z,1015.68
2023-05-02T10:29:00.969Z,1015.63
2023-05-02T10:30:01.225Z,1015.65
2023-05-02T10:31:00.962Z,1015.74
2023-05-02T10:32:00.986Z,1015.73
2023-05-02T10:33:00.947Z,1015.76
2023-05-02T10:34:00.904Z,1015.69
2023-05-02T10:35:01.143Z,1015.83
2023-05-02T10:36:00.880Z,1015.83
2023-05-02T10:37:00.881Z,1015.89
2023-05-02T10:38:00.857Z,1015.93
2023-05-02T10:39:01.004Z,1015.81
2023-05-02T10:40:00.824Z,1015.90
2023-05-02T10:41:00.827Z,1015.89
2023-05-02T10:42:00.826Z,1015.95
2023-05-02T10:43:00.819Z,1015.96
2023-05-02T10:44:00.791Z,1015.87
2023-05-02T10:45:01.093Z,1015.93
2023-05-02T10:46:00.752Z,1015.98
2023-05-02T10:47:00.884Z,1015.97
2023-05-02T10:48:00.754Z,1015.98
2023-05-02T10:49:00.768Z,1016.00
2023-05-02T10:50:00.710Z,1016.02
2023-05-02T10:51:00.706Z,1016.02
2023-05-02T10:52:00.698Z,1016.07
2023-05-02T10:53:00.701Z,1016.07
2023-05-02T10:54:00.700Z,1016.05
2023-05-02T10:55:00.947Z,1015.98
2023-05-02T10:56:00.681Z,1016.05
2023-05-02T10:57:00.645Z,1016.07
2023-05-02T10:58:00.629Z,1016.11
2023-05-02T10:59:00.626Z,1016.06
2023-05-02T11:00:00.644Z,1016.07
2023-05-02T11:01:00.656Z,1016.03
2023-05-02T11:02:00.648Z,1016.03
2023-05-02T11:03:00.757Z,1016.01
2023-05-02T11:04:00.579Z,1016.00
2023-05-02T11:05:00.806Z,1015.97
2023-05-02T11:06:00.600Z,1015.99
2023-05-02T11:07:00.575Z,1016.02
2023-05-02T11:08:00.508Z,1016.06
2023-05-02T11:09:00.528Z,1015.97
2023-05-02T11:10:00.512Z,1016.01
2023-05-02T11:11:00.507Z,1016.00
2023-05-02T11:12:00.476Z,1016.04
2023-05-02T11:13:00.488Z,1016.04
2023-05-02T11:14:00.470Z,1015.99
2023-05-02T11:15:00.759Z,1016.01
2023-05-02T11:16:00.457Z,1015.99
2023-05-02T11:17:00.599Z,1015.99
2023-05-02T11:18:00.497Z,1015.95
2023-05-02T11:19:00.437Z,1015.92
2023-05-02T11:20:00.406Z,1016.03
2023-05-02T11:21:00.405Z,1016.06
2023-05-02T11:22:00.359Z,1015.99
2023-05-02T11:23:00.411Z,1016.04
2023-05-02T11:24:00.328Z,1015.93
2023-05-02T11:25:00.740Z,1015.97
2023-05-02T11:26:00.332Z,1015.95
2023-05-02T11:27:00.324Z,1015.98
2023-05-02T11:28:00.309Z,1016.04
2023-05-02T11:29:00.305Z,1015.94
2023-05-02T11:30:00.303Z,1016.00
2023-05-02T11:31:00.293Z,1015.95
2023-05-02T11:32:00.410Z,1015.98
2023-05-02T11:33:00.336Z,1016.04
2023-05-02T11:34:00.236Z,1016.00
2023-05-02T11:35:00.593Z,1016.03
2023-05-02T11:36:00.237Z,1016.00
2023-05-02T11:37:00.224Z,1016.04
2023-05-02T11:38:00.196Z,1015.98
2023-05-02T11:39:00.223Z,1016.00
2023-05-02T11:40:00.180Z,1016.03
2023-05-02T11:41:00.266Z,1016.01
2023-05-02T11:42:00.202Z,1016.03
2023-05-02T11:43:00.227Z,1016.02
2023-05-02T11:44:00.158Z,1016.03
2023-05-02T11:45:00.415Z,1016.08
2023-05-02T11:46:00.407Z,1016.03
2023-05-02T11:47:00.145Z,1016.11
2023-05-02T11:48:00.192Z,1016.05
2023-05-02T11:49:00.129Z,1016.14
2023-05-02T11:50:00.118Z,1016.09
2023-05-02T11:51:00.095Z,1016.05
2023-05-02T11:52:00.033Z,1016.12
2023-05-02T11:53:00.076Z,1016.15
2023-05-02T11:54:00.027Z,1016.15
2023-05-02T11:55:00.249Z,1016.19
2023-05-02T11:56:00.069Z,1016.13
2023-05-02T11:57:00.002Z,1016.17
2023-05-02T11:57:59.998Z,1016.13
2023-05-02T11:59:00.003Z,1016.14
2023-05-02T11:59:59.988Z,1016.12
2023-05-02T12:00:59.964Z,1016.17
2023-05-02T12:01:59.970Z,1016.04
2023-05-02T12:03:00.148Z,1016.09
2023-05-02T12:03:59.934Z,1016.06
2023-05-02T12:05:00.221Z,1016.09
2023-05-02T12:05:59.998Z,1016.15